sensor_id;sensor_type;location;lat;lon;timestamp;pressure;altitude;pressure_sealevel;temperature;humidity
55456;BME280;63021;52.836;6.376;2023-02-18T00:01:21;102157.00;;;7.86;72.83
55456;BME280;63021;52.836;6.376;2023-02-18T00:03:47;102157.09;;;7.84;72.84
55456;BME280;63021;52.836;6.376;2023-02-18T00:06:26;102163.81;;;7.90;72.87
55456;BME280;63021;52.836;6.376;2023-02-18T00:08:52;102167.59;;;7.86;72.71
55456;BME280;63021;52.836;6.376;2023-02-18T00:11:20;102165.50;;;7.91;73.04
55456;BME280;63021;52.836;6.376;2023-02-18T00:13:55;102159.28;;;7.92;73.31
55456;BME280;63021;52.836;6.376;2023-02-18T00:16:22;102141.84;;;7.88;73.36
55456;BME280;63021;52.836;6.376;2023-02-18T00:18:56;102151.31;;;7.92;72.91
55456;BME280;63021;52.836;6.376;2023-02-18T00:21:21;102156.53;;;7.93;73.57
55456;BME280;63021;52.836;6.376;2023-02-18T00:23:47;102153.88;;;7.93;73.28
55456;BME280;63021;52.836;6.376;2023-02-18T00:26:15;102149.41;;;7.94;73.30
55456;BME280;63021;52.836;6.376;2023-02-18T00:28:41;102138.81;;;7.94;73.57
55456;BME280;63021;52.836;6.376;2023-02-18T00:31:16;102140.50;;;7.95;73.79
55456;BME280;63021;52.836;6.376;2023-02-18T00:33:42;102136.34;;;7.91;73.97
55456;BME280;63021;52.836;6.376;2023-02-18T00:36:10;102128.97;;;7.96;74.37
55456;BME280;63021;52.836;6.376;2023-02-18T00:38:36;102121.13;;;7.94;74.05
55456;BME280;63021;52.836;6.376;2023-02-18T00:41:03;102106.25;;;7.92;73.90
55456;BME280;63021;52.836;6.376;2023-02-18T00:43:29;102109.22;;;8.00;74.39
55456;BME280;63021;52.836;6.376;2023-02-18T00:45:57;102094.59;;;7.94;74.50
55456;BME280;63021;52.836;6.376;2023-02-18T00:48:25;102102.97;;;8.01;74.16
55456;BME280;63021;52.836;6.376;2023-02-18T00:50:53;102090.50;;;8.03;74.25
55456;BME280;63021;52.836;6.376;2023-02-18T00:53:19;102087.94;;;8.02;74.80
55456;BME280;63021;52.836;6.376;2023-02-18T00:55:51;102079.69;;;8.06;74.92
55456;BME280;63021;52.836;6.376;2023-02-18T00:58:17;102083.06;;;8.08;74.75
55456;BME280;63021;52.836;6.376;2023-02-18T01:00:43;102077.88;;;8.07;75.04
55456;BME280;63021;52.836;6.376;2023-02-18T01:03:13;102068.66;;;8.12;74.93
55456;BME280;63021;52.836;6.376;2023-02-18T01:05:40;102062.31;;;8.15;74.85
55456;BME280;63021;52.836;6.376;2023-02-18T01:08:11;102033.09;;;8.02;75.58
55456;BME280;63021;52.836;6.376;2023-02-18T01:10:40;102040.00;;;8.05;75.57
55456;BME280;63021;52.836;6.376;2023-02-18T01:13:13;102054.97;;;8.19;75.59
55456;BME280;63021;52.836;6.376;2023-02-18T01:15:40;102030.38;;;8.17;75.60
55456;BME280;63021;52.836;6.376;2023-02-18T01:18:06;102006.47;;;8.04;75.78
55456;BME280;63021;52.836;6.376;2023-02-18T01:20:35;102033.75;;;8.19;75.59
55456;BME280;63021;52.836;6.376;2023-02-18T01:23:01;102039.94;;;8.19;76.03
55456;BME280;63021;52.836;6.376;2023-02-18T01:25:27;102008.47;;;8.00;75.65
55456;BME280;63021;52.836;6.376;2023-02-18T01:27:52;102041.53;;;8.22;76.00
55456;BME280;63021;52.836;6.376;2023-02-18T01:30:18;102006.47;;;8.04;76.32
55456;BME280;63021;52.836;6.376;2023-02-18T01:32:44;102037.41;;;8.18;76.22
55456;BME280;63021;52.836;6.376;2023-02-18T01:35:12;102059.13;;;8.23;76.34
55456;BME280;63021;52.836;6.376;2023-02-18T01:37:38;102036.88;;;8.25;76.14
55456;BME280;63021;52.836;6.376;2023-02-18T01:40:05;102037.59;;;8.27;76.48
55456;BME280;63021;52.836;6.376;2023-02-18T01:42:30;102039.41;;;8.27;76.48
55456;BME280;63021;52.836;6.376;2023-02-18T01:48:11;102026.16;;;8.27;76.53
55456;BME280;63021;52.836;6.376;2023-02-18T01:50:44;102026.03;;;8.28;76.68
55456;BME280;63021;52.836;6.376;2023-02-18T01:53:14;102018.09;;;8.28;76.88
55456;BME280;63021;52.836;6.376;2023-02-18T01:55:40;102013.00;;;8.25;77.25
55456;BME280;63021;52.836;6.376;2023-02-18T01:58:06;102039.09;;;8.31;76.97
55456;BME280;63021;52.836;6.376;2023-02-18T02:00:32;102017.03;;;8.31;77.05
55456;BME280;63021;52.836;6.376;2023-02-18T02:02:58;101996.03;;;8.28;76.78
55456;BME280;63021;52.836;6.376;2023-02-18T02:05:23;101993.78;;;8.35;77.38
55456;BME280;63021;52.836;6.376;2023-02-18T02:07:51;101990.09;;;8.37;77.59
55456;BME280;63021;52.836;6.376;2023-02-18T02:10:19;101977.97;;;8.33;77.40
55456;BME280;63021;52.836;6.376;2023-02-18T02:15:51;101972.28;;;8.39;77.00
55456;BME280;63021;52.836;6.376;2023-02-18T02:18:38;101967.81;;;8.40;77.04
55456;BME280;63021;52.836;6.376;2023-02-18T02:24:27;101969.22;;;8.45;77.44
55456;BME280;63021;52.836;6.376;2023-02-18T02:35:22;101939.81;;;8.48;76.70
55456;BME280;63021;52.836;6.376;2023-02-18T02:38:18;101938.97;;;8.48;77.04
55456;BME280;63021;52.836;6.376;2023-02-18T02:41:14;101929.09;;;8.50;77.24
55456;BME280;63021;52.836;6.376;2023-02-18T02:43:55;101912.22;;;8.51;76.97
55456;BME280;63021;52.836;6.376;2023-02-18T02:46:40;101911.16;;;8.54;77.10
55456;BME280;63021;52.836;6.376;2023-02-18T02:49:26;101921.56;;;8.57;76.75
55456;BME280;63021;52.836;6.376;2023-02-18T02:51:58;101913.59;;;8.57;76.71
55456;BME280;63021;52.836;6.376;2023-02-18T02:54:26;101910.84;;;8.58;77.08
55456;BME280;63021;52.836;6.376;2023-02-18T02:59:42;101921.13;;;8.63;77.31
55456;BME280;63021;52.836;6.376;2023-02-18T03:02:23;101906.91;;;8.64;77.38
55456;BME280;63021;52.836;6.376;2023-02-18T03:05:17;101896.50;;;8.61;77.24
55456;BME280;63021;52.836;6.376;2023-02-18T03:07:59;101910.28;;;8.66;77.47
55456;BME280;63021;52.836;6.376;2023-02-18T03:16:29;101889.81;;;8.68;77.96
55456;BME280;63021;52.836;6.376;2023-02-18T03:19:05;101876.31;;;8.71;77.89
55456;BME280;63021;52.836;6.376;2023-02-18T03:21:35;101871.94;;;8.70;78.08
55456;BME280;63021;52.836;6.376;2023-02-18T03:26:31;101859.09;;;8.77;78.51
55456;BME280;63021;52.836;6.376;2023-02-18T03:29:07;101852.72;;;8.79;78.16
55456;BME280;63021;52.836;6.376;2023-02-18T03:31:36;101842.94;;;8.80;78.59
55456;BME280;63021;52.836;6.376;2023-02-18T03:34:10;101844.53;;;8.82;78.96
55456;BME280;63021;52.836;6.376;2023-02-18T03:36:36;101826.66;;;8.84;78.44
55456;BME280;63021;52.836;6.376;2023-02-18T03:39:17;101814.38;;;8.83;79.05
55456;BME280;63021;52.836;6.376;2023-02-18T03:41:44;101800.88;;;8.87;78.86
55456;BME280;63021;52.836;6.376;2023-02-18T03:44:12;101790.25;;;8.87;78.88
55456;BME280;63021;52.836;6.376;2023-02-18T03:46:40;101803.19;;;8.91;79.44
55456;BME280;63021;52.836;6.376;2023-02-18T03:49:15;101808.25;;;8.94;79.72
55456;BME280;63021;52.836;6.376;2023-02-18T03:51:41;101803.19;;;8.91;79.84
55456;BME280;63021;52.836;6.376;2023-02-18T03:54:07;101801.25;;;8.93;80.37
55456;BME280;63021;52.836;6.376;2023-02-18T03:56:37;101808.91;;;8.98;80.01
55456;BME280;63021;52.836;6.376;2023-02-18T03:59:02;101802.09;;;8.94;80.24
55456;BME280;63021;52.836;6.376;2023-02-18T04:01:28;101806.72;;;9.03;79.89
55456;BME280;63021;52.836;6.376;2023-02-18T04:03:58;101798.53;;;9.06;80.47
55456;BME280;63021;52.836;6.376;2023-02-18T04:06:24;101789.59;;;9.07;80.13
55456;BME280;63021;52.836;6.376;2023-02-18T04:08:53;101788.66;;;9.08;80.41
55456;BME280;63021;52.836;6.376;2023-02-18T04:11:19;101780.56;;;9.10;80.36
55456;BME280;63021;52.836;6.376;2023-02-18T04:13:44;101783.22;;;9.10;80.56
55456;BME280;63021;52.836;6.376;2023-02-18T04:16:10;101758.38;;;9.11;80.53
55456;BME280;63021;52.836;6.376;2023-02-18T04:18:41;101755.34;;;9.15;80.35
55456;BME280;63021;52.836;6.376;2023-02-18T04:21:07;101752.81;;;9.14;80.51
55456;BME280;63021;52.836;6.376;2023-02-18T04:23:32;101738.66;;;9.13;80.60
55456;BME280;63021;52.836;6.376;2023-02-18T04:25:57;101757.25;;;9.13;80.52
55456;BME280;63021;52.836;6.376;2023-02-18T04:28:23;101732.41;;;9.14;80.59
55456;BME280;63021;52.836;6.376;2023-02-18T04:30:48;101727.47;;;9.21;80.95
55456;BME280;63021;52.836;6.376;2023-02-18T04:33:14;101730.13;;;9.21;80.69
55456;BME280;63021;52.836;6.376;2023-02-18T04:35:40;101716.84;;;9.21;80.45
55456;BME280;63021;52.836;6.376;2023-02-18T04:38:09;101706.56;;;9.16;80.65
55456;BME280;63021;52.836;6.376;2023-02-18T04:40:35;101716.38;;;9.27;81.01
55456;BME280;63021;52.836;6.376;2023-02-18T04:43:00;101706.47;;;9.29;80.44
55456;BME280;63021;52.836;6.376;2023-02-18T04:45:27;101692.06;;;9.21;81.05
55456;BME280;63021;52.836;6.376;2023-02-18T04:47:52;101704.69;;;9.30;80.73
55456;BME280;63021;52.836;6.376;2023-02-18T04:50:19;101709.13;;;9.29;80.66
55456;BME280;63021;52.836;6.376;2023-02-18T04:52:44;101703.94;;;9.28;81.22
55456;BME280;63021;52.836;6.376;2023-02-18T04:55:13;101693.19;;;9.29;80.73
55456;BME280;63021;52.836;6.376;2023-02-18T04:57:39;101672.91;;;9.28;80.98
55456;BME280;63021;52.836;6.376;2023-02-18T05:00:06;101677.88;;;9.33;81.59
55456;BME280;63021;52.836;6.376;2023-02-18T05:02:33;101673.25;;;9.35;80.95
55456;BME280;63021;52.836;6.376;2023-02-18T05:04:59;101657.56;;;9.32;81.22
55456;BME280;63021;52.836;6.376;2023-02-18T05:07:24;101666.28;;;9.34;81.14
55456;BME280;63021;52.836;6.376;2023-02-18T05:09:50;101663.75;;;9.32;81.57
55456;BME280;63021;52.836;6.376;2023-02-18T05:12:15;101657.56;;;9.32;81.77
55456;BME280;63021;52.836;6.376;2023-02-18T05:14:41;101646.94;;;9.32;81.80
55456;BME280;63021;52.836;6.376;2023-02-18T05:17:06;101652.13;;;9.33;82.07
55456;BME280;63021;52.836;6.376;2023-02-18T05:19:35;101648.75;;;9.31;82.12
55456;BME280;63021;52.836;6.376;2023-02-18T05:22:01;101653.22;;;9.31;82.21
55456;BME280;63021;52.836;6.376;2023-02-18T05:24:26;101642.50;;;9.32;82.56
55456;BME280;63021;52.836;6.376;2023-02-18T05:26:53;101639.72;;;9.34;82.69
55456;BME280;63021;52.836;6.376;2023-02-18T05:29:21;101635.22;;;9.34;82.58
55456;BME280;63021;52.836;6.376;2023-02-18T05:31:46;101631.22;;;9.29;82.44
55456;BME280;63021;52.836;6.376;2023-02-18T05:34:18;101627.13;;;9.36;82.97
55456;BME280;63021;52.836;6.376;2023-02-18T05:36:45;101613.25;;;9.32;82.94
55456;BME280;63021;52.836;6.376;2023-02-18T05:39:12;101610.94;;;9.39;83.04
55456;BME280;63021;52.836;6.376;2023-02-18T05:41:37;101606.50;;;9.40;83.40
55456;BME280;63021;52.836;6.376;2023-02-18T05:44:03;101583.16;;;9.32;83.42
55456;BME280;63021;52.836;6.376;2023-02-18T05:46:52;101577.00;;;9.31;83.33
55456;BME280;63021;52.836;6.376;2023-02-18T05:49:32;101594.75;;;9.42;83.91
55456;BME280;63021;52.836;6.376;2023-02-18T05:51:58;101584.13;;;9.42;83.66
55456;BME280;63021;52.836;6.376;2023-02-18T05:54:24;101547.53;;;9.23;83.60
55456;BME280;63021;52.836;6.376;2023-02-18T05:57:01;101569.50;;;9.36;83.61
55456;BME280;63021;52.836;6.376;2023-02-18T05:59:28;101560.44;;;9.28;83.89
55456;BME280;63021;52.836;6.376;2023-02-18T06:01:55;101590.91;;;9.46;83.69
55456;BME280;63021;52.836;6.376;2023-02-18T06:04:31;101575.44;;;9.40;84.14
55456;BME280;63021;52.836;6.376;2023-02-18T06:06:59;101576.41;;;9.50;83.98
55456;BME280;63021;52.836;6.376;2023-02-18T06:09:35;101561.53;;;9.36;83.75
55456;BME280;63021;52.836;6.376;2023-02-18T06:12:05;101579.19;;;9.49;84.15
55456;BME280;63021;52.836;6.376;2023-02-18T06:14:32;101535.47;;;9.42;84.38
55456;BME280;63021;52.836;6.376;2023-02-18T06:16:57;101530.97;;;9.31;83.94
55456;BME280;63021;52.836;6.376;2023-02-18T06:19:34;101550.56;;;9.52;83.94
55456;BME280;63021;52.836;6.376;2023-02-18T06:22:04;101545.13;;;9.54;84.20
55456;BME280;63021;52.836;6.376;2023-02-18T06:24:45;101543.28;;;9.54;84.69
55456;BME280;63021;52.836;6.376;2023-02-18T06:27:10;101534.50;;;9.54;84.01
55456;BME280;63021;52.836;6.376;2023-02-18T06:29:37;101517.47;;;9.45;84.38
55456;BME280;63021;52.836;6.376;2023-02-18T06:32:02;101537.84;;;9.56;84.43
55456;BME280;63021;52.836;6.376;2023-02-18T06:34:40;101526.03;;;9.49;84.38
55456;BME280;63021;52.836;6.376;2023-02-18T06:37:22;101542.59;;;9.52;84.64
55456;BME280;63021;52.836;6.376;2023-02-18T06:39:53;101554.63;;;9.57;85.28
55456;BME280;63021;52.836;6.376;2023-02-18T06:42:22;101551.38;;;9.53;85.12
55456;BME280;63021;52.836;6.376;2023-02-18T06:45:05;101539.81;;;9.54;84.92
55456;BME280;63021;52.836;6.376;2023-02-18T06:47:39;101551.00;;;9.58;85.48
55456;BME280;63021;52.836;6.376;2023-02-18T06:50:05;101543.78;;;9.60;85.58
55456;BME280;63021;52.836;6.376;2023-02-18T06:52:31;101527.47;;;9.53;85.53
55456;BME280;63021;52.836;6.376;2023-02-18T06:55:06;101524.69;;;9.54;85.49
55456;BME280;63021;52.836;6.376;2023-02-18T06:57:32;101526.38;;;9.56;85.72
55456;BME280;63021;52.836;6.376;2023-02-18T06:59:58;101491.38;;;9.39;85.31
55456;BME280;63021;52.836;6.376;2023-02-18T07:02:26;101490.41;;;9.40;85.11
55456;BME280;63021;52.836;6.376;2023-02-18T07:04:52;101526.72;;;9.62;85.57
55456;BME280;63021;52.836;6.376;2023-02-18T07:07:42;101532.78;;;9.64;85.78
55456;BME280;63021;52.836;6.376;2023-02-18T07:10:08;101526.59;;;9.64;85.70
55456;BME280;63021;52.836;6.376;2023-02-18T07:12:35;101521.28;;;9.64;85.80
55456;BME280;63021;52.836;6.376;2023-02-18T07:15:01;101527.59;;;9.63;86.22
55456;BME280;63021;52.836;6.376;2023-02-18T07:17:43;101532.66;;;9.66;86.27
55456;BME280;63021;52.836;6.376;2023-02-18T07:20:10;101508.22;;;9.61;86.05
55456;BME280;63021;52.836;6.376;2023-02-18T07:22:40;101517.66;;;9.53;85.96
55456;BME280;63021;52.836;6.376;2023-02-18T07:25:06;101480.34;;;9.44;85.76
55456;BME280;63021;52.836;6.376;2023-02-18T07:27:31;101506.78;;;9.57;86.09
55456;BME280;63021;52.836;6.376;2023-02-18T07:30:08;101519.47;;;9.64;86.12
55456;BME280;63021;52.836;6.376;2023-02-18T07:32:40;101522.84;;;9.66;85.85
55456;BME280;63021;52.836;6.376;2023-02-18T07:35:23;101523.09;;;9.63;86.00
55456;BME280;63021;52.836;6.376;2023-02-18T07:37:49;101500.53;;;9.46;86.13
55456;BME280;63021;52.836;6.376;2023-02-18T07:40:29;101529.25;;;9.64;86.00
55456;BME280;63021;52.836;6.376;2023-02-18T07:42:55;101493.88;;;9.52;85.70
55456;BME280;63021;52.836;6.376;2023-02-18T07:45:20;101507.91;;;9.54;86.28
55456;BME280;63021;52.836;6.376;2023-02-18T07:47:45;101504.63;;;9.50;86.15
55456;BME280;63021;52.836;6.376;2023-02-18T07:50:11;101504.28;;;9.44;86.04
55456;BME280;63021;52.836;6.376;2023-02-18T07:52:37;101533.16;;;9.60;85.56
55456;BME280;63021;52.836;6.376;2023-02-18T07:55:02;101528.78;;;9.59;85.60
55456;BME280;63021;52.836;6.376;2023-02-18T07:57:28;101542.78;;;9.61;85.74
55456;BME280;63021;52.836;6.376;2023-02-18T07:59:53;101530.38;;;9.61;85.59
55456;BME280;63021;52.836;6.376;2023-02-18T08:02:21;101485.09;;;9.40;85.72
55456;BME280;63021;52.836;6.376;2023-02-18T08:04:47;101505.81;;;9.58;85.59
55456;BME280;63021;52.836;6.376;2023-02-18T08:07:19;101511.03;;;9.59;85.51
55456;BME280;63021;52.836;6.376;2023-02-18T08:09:46;101497.84;;;9.58;85.31
55456;BME280;63021;52.836;6.376;2023-02-18T08:12:13;101472.50;;;9.42;85.38
55456;BME280;63021;52.836;6.376;2023-02-18T08:14:38;101490.13;;;9.54;85.51
55456;BME280;63021;52.836;6.376;2023-02-18T08:17:05;101511.63;;;9.63;85.61
55456;BME280;63021;52.836;6.376;2023-02-18T08:19:30;101497.50;;;9.51;85.20
55456;BME280;63021;52.836;6.376;2023-02-18T08:22:00;101506.75;;;9.68;85.39
55456;BME280;63021;52.836;6.376;2023-02-18T08:24:40;101515.59;;;9.68;84.80
55456;BME280;63021;52.836;6.376;2023-02-18T08:27:05;101506.75;;;9.68;85.25
55456;BME280;63021;52.836;6.376;2023-02-18T08:29:34;101480.13;;;9.47;85.08
55456;BME280;63021;52.836;6.376;2023-02-18T08:32:21;101518.25;;;9.68;85.09
55456;BME280;63021;52.836;6.376;2023-02-18T08:34:47;101479.28;;;9.46;85.03
55456;BME280;63021;52.836;6.376;2023-02-18T08:37:12;101485.19;;;9.50;84.91
55456;BME280;63021;52.836;6.376;2023-02-18T08:39:42;101481.94;;;9.46;84.89
55456;BME280;63021;52.836;6.376;2023-02-18T08:42:08;101517.66;;;9.65;84.64
55456;BME280;63021;52.836;6.376;2023-02-18T08:44:33;101490.63;;;9.48;84.87
55456;BME280;63021;52.836;6.376;2023-02-18T08:46:59;101498.94;;;9.55;84.53
55456;BME280;63021;52.836;6.376;2023-02-18T08:49:25;101496.53;;;9.52;84.77
55456;BME280;63021;52.836;6.376;2023-02-18T08:51:51;101510.91;;;9.49;84.43
55456;BME280;63021;52.836;6.376;2023-02-18T08:54:24;101518.88;;;9.61;84.42
55456;BME280;63021;52.836;6.376;2023-02-18T08:56:55;101524.78;;;9.64;84.06
55456;BME280;63021;52.836;6.376;2023-02-18T08:59:25;101535.56;;;9.63;84.14
55456;BME280;63021;52.836;6.376;2023-02-18T09:01:51;101495.69;;;9.51;84.63
55456;BME280;63021;52.836;6.376;2023-02-18T09:04:19;101500.31;;;9.38;84.74
55456;BME280;63021;52.836;6.376;2023-02-18T09:06:52;101534.94;;;9.59;84.77
55456;BME280;63021;52.836;6.376;2023-02-18T09:09:21;101522.41;;;9.50;85.09
55456;BME280;63021;52.836;6.376;2023-02-18T09:11:47;101521.91;;;9.56;84.76
55456;BME280;63021;52.836;6.376;2023-02-18T09:14:13;101511.41;;;9.43;84.97
55456;BME280;63021;52.836;6.376;2023-02-18T09:17:13;101521.41;;;9.51;85.04
55456;BME280;63021;52.836;6.376;2023-02-18T09:19:41;101521.66;;;9.48;85.25
55456;BME280;63021;52.836;6.376;2023-02-18T09:22:15;101509.50;;;9.45;85.16
55456;BME280;63021;52.836;6.376;2023-02-18T09:24:41;101499.72;;;9.23;84.94
55456;BME280;63021;52.836;6.376;2023-02-18T09:27:07;101491.13;;;9.42;85.03
55456;BME280;63021;52.836;6.376;2023-02-18T09:29:33;101522.53;;;9.37;85.34
55456;BME280;63021;52.836;6.376;2023-02-18T09:32:00;101541.50;;;9.32;85.89
55456;BME280;63021;52.836;6.376;2023-02-18T09:34:27;101539.19;;;9.28;85.72
55456;BME280;63021;52.836;6.376;2023-02-18T09:36:52;101531.34;;;9.26;85.90
55456;BME280;63021;52.836;6.376;2023-02-18T09:39:20;101523.38;;;9.15;85.08
55456;BME280;63021;52.836;6.376;2023-02-18T09:44:31;101535.59;;;9.29;85.37
55456;BME280;63021;52.836;6.376;2023-02-18T09:47:04;101526.16;;;9.13;85.92
55456;BME280;63021;52.836;6.376;2023-02-18T09:49:34;101517.25;;;9.14;85.55
55456;BME280;63021;52.836;6.376;2023-02-18T09:52:23;101533.06;;;9.27;85.56
55456;BME280;63021;52.836;6.376;2023-02-18T09:54:50;101511.78;;;9.05;85.79
55456;BME280;63021;52.836;6.376;2023-02-18T09:57:28;101538.63;;;9.24;85.85
55456;BME280;63021;52.836;6.376;2023-02-18T10:00:00;101546.72;;;9.23;85.32
55456;BME280;63021;52.836;6.376;2023-02-18T10:02:28;101514.09;;;8.98;85.88
55456;BME280;63021;52.836;6.376;2023-02-18T10:04:54;101515.53;;;9.02;85.82
55456;BME280;63021;52.836;6.376;2023-02-18T10:07:30;101525.56;;;9.10;85.90
55456;BME280;63021;52.836;6.376;2023-02-18T10:10:02;101521.84;;;9.12;86.13
55456;BME280;63021;52.836;6.376;2023-02-18T10:12:36;101539.44;;;9.25;85.75
55456;BME280;63021;52.836;6.376;2023-02-18T10:15:16;101560.56;;;9.26;85.65
55456;BME280;63021;52.836;6.376;2023-02-18T10:17:51;101543.44;;;9.30;85.77
55456;BME280;63021;52.836;6.376;2023-02-18T10:20:22;101551.91;;;9.35;85.50
55456;BME280;63021;52.836;6.376;2023-02-18T10:22:51;101532.94;;;9.29;85.55
55456;BME280;63021;52.836;6.376;2023-02-18T10:25:20;101536.78;;;9.36;85.53
55456;BME280;63021;52.836;6.376;2023-02-18T10:27:48;101560.00;;;9.45;85.28
55456;BME280;63021;52.836;6.376;2023-02-18T10:30:21;101497.66;;;9.38;85.21
55456;BME280;63021;52.836;6.376;2023-02-18T10:32:55;101536.66;;;9.49;84.93
55456;BME280;63021;52.836;6.376;2023-02-18T10:35:52;101550.50;;;9.64;84.88
55456;BME280;63021;52.836;6.376;2023-02-18T10:47:36;101551.97;;;9.68;84.05
55456;BME280;63021;52.836;6.376;2023-02-18T10:50:30;101525.19;;;9.48;83.38
55456;BME280;63021;52.836;6.376;2023-02-18T10:53:09;101539.03;;;9.63;84.11
55456;BME280;63021;52.836;6.376;2023-02-18T10:55:43;101523.00;;;9.53;83.40
55456;BME280;63021;52.836;6.376;2023-02-18T11:01:20;101557.00;;;9.82;83.22
55456;BME280;63021;52.836;6.376;2023-02-18T11:04:15;101556.03;;;9.83;83.05
55456;BME280;63021;52.836;6.376;2023-02-18T11:06:51;101574.28;;;9.88;82.94
55456;BME280;63021;52.836;6.376;2023-02-18T11:17:41;101562.31;;;9.94;82.50
55456;BME280;63021;52.836;6.376;2023-02-18T11:20:20;101584.28;;;10.07;82.27
55456;BME280;63021;52.836;6.376;2023-02-18T11:22:50;101564.72;;;9.97;81.64
55456;BME280;63021;52.836;6.376;2023-02-18T11:25:25;101557.59;;;9.97;81.72
55456;BME280;63021;52.836;6.376;2023-02-18T11:27:55;101571.09;;;10.05;81.36
55456;BME280;63021;52.836;6.376;2023-02-18T11:30:46;101576.25;;;10.18;81.45
55456;BME280;63021;52.836;6.376;2023-02-18T11:33:23;101573.13;;;10.13;81.32
55456;BME280;63021;52.836;6.376;2023-02-18T11:35:55;101550.94;;;10.03;81.66
55456;BME280;63021;52.836;6.376;2023-02-18T11:38:34;101556.31;;;10.13;81.01
55456;BME280;63021;52.836;6.376;2023-02-18T11:41:17;101569.44;;;10.26;81.42
55456;BME280;63021;52.836;6.376;2023-02-18T11:43:48;101577.78;;;10.32;80.93
55456;BME280;63021;52.836;6.376;2023-02-18T11:46:23;101583.47;;;10.39;80.51
55456;BME280;63021;52.836;6.376;2023-02-18T11:48:52;101570.56;;;10.34;80.67
55456;BME280;63021;52.836;6.376;2023-02-18T11:51:35;101614.38;;;10.51;80.32
55456;BME280;63021;52.836;6.376;2023-02-18T11:57:12;101598.50;;;10.61;79.87
55456;BME280;63021;52.836;6.376;2023-02-18T11:59:43;101587.13;;;10.59;79.67
55456;BME280;63021;52.836;6.376;2023-02-18T12:02:25;101563.66;;;10.53;79.55
55456;BME280;63021;52.836;6.376;2023-02-18T12:04:59;101591.88;;;10.77;79.40
55456;BME280;63021;52.836;6.376;2023-02-18T12:07:46;101580.50;;;10.74;79.65
55456;BME280;63021;52.836;6.376;2023-02-18T12:10:14;101581.03;;;10.89;78.93
55456;BME280;63021;52.836;6.376;2023-02-18T12:13:02;101595.78;;;10.94;78.59
55456;BME280;63021;52.836;6.376;2023-02-18T12:21:13;101578.63;;;10.86;78.25
55456;BME280;63021;52.836;6.376;2023-02-18T12:26:37;101587.53;;;10.97;78.16
55456;BME280;63021;52.836;6.376;2023-02-18T12:52:25;101622.34;;;11.05;77.36
55456;BME280;63021;52.836;6.376;2023-02-18T13:04:09;101597.22;;;10.98;76.84
55456;BME280;63021;52.836;6.376;2023-02-18T13:07:14;101602.97;;;11.03;76.78
55456;BME280;63021;52.836;6.376;2023-02-18T13:18:15;101626.22;;;11.22;77.31
55456;BME280;63021;52.836;6.376;2023-02-18T13:20:56;101633.09;;;11.24;76.75
55456;BME280;63021;52.836;6.376;2023-02-18T13:23:28;101619.91;;;11.23;76.59
55456;BME280;63021;52.836;6.376;2023-02-18T13:26:04;101602.75;;;11.16;76.64
55456;BME280;63021;52.836;6.376;2023-02-18T13:28:48;101635.38;;;11.29;76.11
55456;BME280;63021;52.836;6.376;2023-02-18T13:39:46;101623.47;;;11.33;75.73
55456;BME280;63021;52.836;6.376;2023-02-18T13:50:14;101633.03;;;11.36;74.71
55456;BME280;63021;52.836;6.376;2023-02-18T13:52:40;101620.03;;;11.21;74.91
55456;BME280;63021;52.836;6.376;2023-02-18T13:55:17;101626.34;;;11.20;75.11
55456;BME280;63021;52.836;6.376;2023-02-18T13:57:46;101627.91;;;11.23;74.69
55456;BME280;63021;52.836;6.376;2023-02-18T14:00:23;101639.53;;;11.22;74.94
55456;BME280;63021;52.836;6.376;2023-02-18T14:03:01;101656.81;;;11.27;74.90
55456;BME280;63021;52.836;6.376;2023-02-18T14:05:42;101643.34;;;11.19;75.30
55456;BME280;63021;52.836;6.376;2023-02-18T14:08:12;101646.56;;;11.23;74.84
55456;BME280;63021;52.836;6.376;2023-02-18T14:10:39;101656.66;;;11.19;74.63
55456;BME280;63021;52.836;6.376;2023-02-18T14:13:38;101647.50;;;11.12;74.56
55456;BME280;63021;52.836;6.376;2023-02-18T14:16:07;101654.06;;;11.08;74.94
55456;BME280;63021;52.836;6.376;2023-02-18T14:18:54;101651.41;;;11.08;74.58
55456;BME280;63021;52.836;6.376;2023-02-18T14:21:47;101663.84;;;11.07;74.85
55456;BME280;63021;52.836;6.376;2023-02-18T14:24:42;101650.94;;;11.03;74.71
55456;BME280;63021;52.836;6.376;2023-02-18T14:27:14;101618.72;;;10.85;74.89
55456;BME280;63021;52.836;6.376;2023-02-18T14:29:41;101661.00;;;10.99;74.80
55456;BME280;63021;52.836;6.376;2023-02-18T14:32:11;101647.50;;;10.91;74.76
55456;BME280;63021;52.836;6.376;2023-02-18T14:34:57;101673.47;;;10.99;74.93
55456;BME280;63021;52.836;6.376;2023-02-18T14:50:23;101651.31;;;10.77;74.54
55456;BME280;63021;52.836;6.376;2023-02-18T14:52:57;101653.25;;;10.75;74.70
55456;BME280;63021;52.836;6.376;2023-02-18T14:55:27;101669.56;;;10.82;74.80
55456;BME280;63021;52.836;6.376;2023-02-18T14:58:19;101682.25;;;10.89;74.69
55456;BME280;63021;52.836;6.376;2023-02-18T15:00:48;101682.50;;;10.86;74.78
55456;BME280;63021;52.836;6.376;2023-02-18T15:03:26;101681.50;;;10.87;75.05
55456;BME280;63021;52.836;6.376;2023-02-18T15:06:33;101675.53;;;10.74;74.54
55456;BME280;63021;52.836;6.376;2023-02-18T15:09:00;101677.22;;;10.75;74.56
55456;BME280;63021;52.836;6.376;2023-02-18T15:11:42;101661.03;;;10.67;74.82
55456;BME280;63021;52.836;6.376;2023-02-18T15:17:16;101685.00;;;10.67;74.78
55456;BME280;63021;52.836;6.376;2023-02-18T15:19:59;101692.47;;;10.73;74.62
55456;BME280;63021;52.836;6.376;2023-02-18T15:22:34;101682.38;;;10.55;74.67
55456;BME280;63021;52.836;6.376;2023-02-18T15:25:00;101684.34;;;10.53;74.81
55456;BME280;63021;52.836;6.376;2023-02-18T15:27:32;101720.13;;;10.61;74.96
55456;BME280;63021;52.836;6.376;2023-02-18T15:32:54;101712.66;;;10.54;74.64
55456;BME280;63021;52.836;6.376;2023-02-18T15:35:21;101702.38;;;10.50;74.77
55456;BME280;63021;52.836;6.376;2023-02-18T15:37:52;101724.84;;;10.57;74.21
55456;BME280;63021;52.836;6.376;2023-02-18T15:40:19;101721.72;;;10.52;74.71